sensor_id;sensor_type;location;lat;lon;timestamp;pressure;altitude;pressure_sealevel;temperature;humidity
74435;BME280;62867;52.038;29.256;2023-05-10T00:02:09;1033.7;;;6.6;57
74435;BME280;62867;52.038;29.256;2023-05-10T00:07:09;1033.7;;;6.6;57.1
74435;BME280;62867;52.038;29.256;2023-05-10T00:11:41;1033.7;;;6.5;57.4
74435;BME280;62867;52.038;29.256;2023-05-10T00:17:09;1033.7;;;6.4;57.8
74435;BME280;62867;52.038;29.256;2023-05-10T00:22:09;1033.7;;;6.2;57.5
74435;BME280;62867;52.038;29.256;2023-05-10T00:26:19;1033.7;;;6.1;58.2
74435;BME280;62867;52.038;29.256;2023-05-10T00:31:37;1033.7;;;6;58.4
74435;BME280;62867;52.038;29.256;2023-05-10T00:37:09;1033.7;;;5.9;58.8
74435;BME280;62867;52.038;29.256;2023-05-10T00:41:29;1033.7;;;5.8;58.8
74435;BME280;62867;52.038;29.256;2023-05-10T00:46:39;1033.8;;;5.7;58.8
74435;BME280;62867;52.038;29.256;2023-05-10T00:51:31;1033.8;;;5.7;59
74435;BME280;62867;52.038;29.256;2023-05-10T00:56:55;1033.8;;;5.6;58.8
74435;BME280;62867;52.038;29.256;2023-05-10T01:01:33;1033.8;;;5.5;59
74435;BME280;62867;52.038;29.256;2023-05-10T01:06:53;1033.9;;;5.5;59.4
74435;BME280;62867;52.038;29.256;2023-05-10T01:11:19;1033.9;;;5.4;59.5
74435;BME280;62867;52.038;29.256;2023-05-10T01:16:57;1033.9;;;5.3;59.8
74435;BME280;62867;52.038;29.256;2023-05-10T01:21:43;1033.9;;;5.2;60.2
74435;BME280;62867;52.038;29.256;2023-05-10T01:27:15;1033.9;;;5.1;60.4
74435;BME280;62867;52.038;29.256;2023-05-10T01:31:58;1033.8;;;5;60.9
74435;BME280;62867;52.038;29.256;2023-05-10T01:37:10;1033.8;;;5;61.2
74435;BME280;62867;52.038;29.256;2023-05-10T01:41:40;1033.8;;;4.9;61.3
74435;BME280;62867;52.038;29.256;2023-05-10T01:47:10;1033.7;;;4.9;61.3
74435;BME280;62867;52.038;29.256;2023-05-10T01:51:31;1033.7;;;4.9;61.2
74435;BME280;62867;52.038;29.256;2023-05-10T01:56:55;1033.7;;;4.8;61.1
74435;BME280;62867;52.038;29.256;2023-05-10T02:01:43;1033.7;;;4.8;61.3
74435;BME280;62867;52.038;29.256;2023-05-10T02:06:19;1033.7;;;4.7;61.1
74435;BME280;62867;52.038;29.256;2023-05-10T02:11:55;1033.7;;;4.7;61.2
74435;BME280;62867;52.038;29.256;2023-05-10T02:16:51;1033.7;;;4.6;61.6
74435;BME280;62867;52.038;29.256;2023-05-10T02:21:28;1033.7;;;4.6;62.1
74435;BME280;62867;52.038;29.256;2023-05-10T02:27:07;1033.7;;;4.5;62.1
74435;BME280;62867;52.038;29.256;2023-05-10T02:32:09;1033.7;;;4.5;61.7
74435;BME280;62867;52.038;29.256;2023-05-10T02:36:31;1033.8;;;4.4;61.9
74435;BME280;62867;52.038;29.256;2023-05-10T02:41:53;1033.8;;;4.4;62.1
74435;BME280;62867;52.038;29.256;2023-05-10T02:46:57;1033.8;;;4.5;61.9
74435;BME280;62867;52.038;29.256;2023-05-10T02:51:34;1033.8;;;4.7;61.8
74435;BME280;62867;52.038;29.256;2023-05-10T02:56:20;1033.8;;;4.8;61.6
74435;BME280;62867;52.038;29.256;2023-05-10T03:01:53;1033.8;;;4.9;61.3
74435;BME280;62867;52.038;29.256;2023-05-10T03:07:07;1033.8;;;5;61.1
74435;BME280;62867;52.038;29.256;2023-05-10T03:12:11;1033.8;;;5.2;60.9
74435;BME280;62867;52.038;29.256;2023-05-10T03:16:42;1033.8;;;5.3;60.7
74435;BME280;62867;52.038;29.256;2023-05-10T03:22:10;1033.8;;;5.4;60.8
74435;BME280;62867;52.038;29.256;2023-05-10T03:26:58;1033.8;;;5.6;60.7
74435;BME280;62867;52.038;29.256;2023-05-10T03:31:41;1033.8;;;5.8;60.5
74435;BME280;62867;52.038;29.256;2023-05-10T03:36:39;1033.8;;;6;60.4
74435;BME280;62867;52.038;29.256;2023-05-10T03:41:55;1033.8;;;6.3;60.2
74435;BME280;62867;52.038;29.256;2023-05-10T03:46:29;1033.8;;;6.5;59.9
74435;BME280;62867;52.038;29.256;2023-05-10T03:51:53;1033.8;;;6.7;59.7
74435;BME280;62867;52.038;29.256;2023-05-10T03:57:09;1033.8;;;7;59.4
74435;BME280;62867;52.038;29.256;2023-05-10T04:01:29;1033.9;;;7.3;59.1
74435;BME280;62867;52.038;29.256;2023-05-10T04:07:09;1033.8;;;7.6;58.6
74435;BME280;62867;52.038;29.256;2023-05-10T04:11:29;1033.8;;;7.9;58
74435;BME280;62867;52.038;29.256;2023-05-10T04:16:19;1033.8;;;8.1;58.1
74435;BME280;62867;52.038;29.256;2023-05-10T04:21:57;1033.8;;;8.4;57.7
74435;BME280;62867;52.038;29.256;2023-05-10T04:26:41;1033.8;;;8.8;57.6
74435;BME280;62867;52.038;29.256;2023-05-10T04:32:07;1033.8;;;9.2;55.9
74435;BME280;62867;52.038;29.256;2023-05-10T04:36:21;1033.8;;;9.6;55.1
74435;BME280;62867;52.038;29.256;2023-05-10T04:42:07;1033.8;;;10;52
74435;BME280;62867;52.038;29.256;2023-05-10T04:46:37;1033.8;;;10.5;50.2
74435;BME280;62867;52.038;29.256;2023-05-10T04:52:07;1033.8;;;10.9;50.4
74435;BME280;62867;52.038;29.256;2023-05-10T04:56:19;1033.8;;;11.3;48.2
74435;BME280;62867;52.038;29.256;2023-05-10T05:01:51;1033.8;;;11.6;47.7
74435;BME280;62867;52.038;29.256;2023-05-10T05:06:47;1033.8;;;11.9;46.8
74435;BME280;62867;52.038;29.256;2023-05-10T05:11:27;1033.9;;;11.8;45.5
74435;BME280;62867;52.038;29.256;2023-05-10T05:16:53;1033.9;;;11.7;46.4
74435;BME280;62867;52.038;29.256;2023-05-10T05:21:51;1033.9;;;11.5;46.3
74435;BME280;62867;52.038;29.256;2023-05-10T05:26:29;1033.9;;;11.5;46.7
74435;BME280;62867;52.038;29.256;2023-05-10T05:32:05;1033.9;;;11.5;46.7
74435;BME280;62867;52.038;29.256;2023-05-10T05:37:07;1033.9;;;11.7;44.9
74435;BME280;62867;52.038;29.256;2023-05-10T05:41:31;1033.8;;;12;43.8
74435;BME280;62867;52.038;29.256;2023-05-10T05:46:53;1033.8;;;12.5;43.8
74435;BME280;62867;52.038;29.256;2023-05-10T05:51:58;1033.8;;;12.7;42.4
74435;BME280;62867;52.038;29.256;2023-05-10T05:56:29;1033.7;;;12.9;42.1
74435;BME280;62867;52.038;29.256;2023-05-10T06:01:34;1033.8;;;13.2;42.6
74435;BME280;62867;52.038;29.256;2023-05-10T06:06:52;1033.8;;;13.4;40.8
74435;BME280;62867;52.038;29.256;2023-05-10T06:12:05;1033.8;;;13.7;39.8
74435;BME280;62867;52.038;29.256;2023-05-10T06:17:05;1033.7;;;13.8;39.3
74435;BME280;62867;52.038;29.256;2023-05-10T06:21:27;1033.7;;;14.2;37.4
74435;BME280;62867;52.038;29.256;2023-05-10T06:27:05;1033.7;;;14.5;36.6
74435;BME280;62867;52.038;29.256;2023-05-10T06:31:55;1033.6;;;14.5;37.5
74435;BME280;62867;52.038;29.256;2023-05-10T06:36:19;1033.7;;;14.6;37.6
74435;BME280;62867;52.038;29.256;2023-05-10T06:41:35;1033.7;;;14.8;36.8
74435;BME280;62867;52.038;29.256;2023-05-10T06:46:51;1033.6;;;15.2;36.6
74435;BME280;62867;52.038;29.256;2023-05-10T06:51:39;1033.6;;;15.5;35.7
74435;BME280;62867;52.038;29.256;2023-05-10T06:56:47;1033.6;;;15.9;34.8
74435;BME280;62867;52.038;29.256;2023-05-10T07:02:03;1033.5;;;16.1;33
74435;BME280;62867;52.038;29.256;2023-05-10T07:06:35;1033.5;;;16.4;32
74435;BME280;62867;52.038;29.256;2023-05-10T07:12:01;1033.5;;;16.6;30.8
74435;BME280;62867;52.038;29.256;2023-05-10T07:16:19;1033.5;;;16.8;30.7
74435;BME280;62867;52.038;29.256;2023-05-10T07:21:27;1033.4;;;17;29.4
74435;BME280;62867;52.038;29.256;2023-05-10T07:26:55;1033.4;;;17.2;28.4
74435;BME280;62867;52.038;29.256;2023-05-10T07:31:49;1033.4;;;17.5;28
74435;BME280;62867;52.038;29.256;2023-05-10T07:36:19;1033.3;;;17.6;28.3
74435;BME280;62867;52.038;29.256;2023-05-10T07:41:45;1033.4;;;17.2;28.6
74435;BME280;62867;52.038;29.256;2023-05-10T07:47:03;1033.4;;;17.3;27.9
74435;BME280;62867;52.038;29.256;2023-05-10T07:51:35;1033.3;;;17.6;26.6
74435;BME280;62867;52.038;29.256;2023-05-10T07:56:33;1033.3;;;17.9;24.3
74435;BME280;62867;52.038;29.256;2023-05-10T08:02:05;1033.2;;;17.8;23.9
74435;BME280;62867;52.038;29.256;2023-05-10T08:07:05;1033.1;;;18.4;24.1
74435;BME280;62867;52.038;29.256;2023-05-10T08:11:41;1033;;;19.1;21.6
74435;BME280;62867;52.038;29.256;2023-05-10T08:16:41;1033;;;19.4;22.2
74435;BME280;62867;52.038;29.256;2023-05-10T08:21:51;1033;;;19.6;22.6
74435;BME280;62867;52.038;29.256;2023-05-10T08:26:39;1033;;;19.9;23.3
74435;BME280;62867;52.038;29.256;2023-05-10T08:31:19;1033;;;20.2;23.7
74435;BME280;62867;52.038;29.256;2023-05-10T08:37:05;1033;;;20.2;23.8
74435;BME280;62867;52.038;29.256;2023-05-10T08:42:05;1033;;;20.1;23.5
74435;BME280;62867;52.038;29.256;2023-05-10T08:46:20;1032.9;;;20.1;23
74435;BME280;62867;52.038;29.256;2023-05-10T08:51:52;1032.9;;;20.5;22.9
74435;BME280;62867;52.038;29.256;2023-05-10T08:56:55;1032.9;;;20.6;21.7
74435;BME280;62867;52.038;29.256;2023-05-10T09:01:47;1032.9;;;20.9;21.6
74435;BME280;62867;52.038;29.256;2023-05-10T09:06:51;1032.9;;;20.9;21.3
74435;BME280;62867;52.038;29.256;2023-05-10T09:11:49;1032.9;;;20.4;21.1
74435;BME280;62867;52.038;29.256;2023-05-10T09:17:05;1032.8;;;19.8;21.2
74435;BME280;62867;52.038;29.256;2023-05-10T09:22:05;1032.8;;;19.5;22.9
74435;BME280;62867;52.038;29.256;2023-05-10T09:26:31;1032.8;;;19.8;22.3
74435;BME280;62867;52.038;29.256;2023-05-10T09:32:05;1032.7;;;20.6;22.5
74435;BME280;62867;52.038;29.256;2023-05-10T09:36:56;1032.7;;;21.3;23.1
74435;BME280;62867;52.038;29.256;2023-05-10T09:41:25;1032.6;;;21.3;22
74435;BME280;62867;52.038;29.256;2023-05-10T09:46:19;1032.6;;;21.6;21.6
74435;BME280;62867;52.038;29.256;2023-05-10T09:52:07;1032.6;;;21.3;21.7
74435;BME280;62867;52.038;29.256;2023-05-10T09:56:35;1032.5;;;20.9;21.8
74435;BME280;62867;52.038;29.256;2023-05-10T10:02:07;1032.5;;;20.7;22.1
74435;BME280;62867;52.038;29.256;2023-05-10T10:06:58;1032.5;;;20.8;20.9
74435;BME280;62867;52.038;29.256;2023-05-10T10:11:19;1032.5;;;21.2;21.9
74435;BME280;62867;52.038;29.256;2023-05-10T10:16:47;1032.4;;;21.4;21.8
74435;BME280;62867;52.038;29.256;2023-05-10T10:21:27;1032.3;;;21.2;21.7
74435;BME280;62867;52.038;29.256;2023-05-10T10:26:19;1032.3;;;20.8;22.1
74435;BME280;62867;52.038;29.256;2023-05-10T10:31:55;1032.3;;;20.5;22.4
74435;BME280;62867;52.038;29.256;2023-05-10T10:36:40;1032.2;;;20.4;23.2
74435;BME280;62867;52.038;29.256;2023-05-10T10:41:49;1032.2;;;21;22.7
74435;BME280;62867;52.038;29.256;2023-05-10T10:46:59;1032.1;;;21.4;22.5
74435;BME280;62867;52.038;29.256;2023-05-10T10:52:13;1032.1;;;21.2;21.8
74435;BME280;62867;52.038;29.256;2023-05-10T10:56:25;1032.1;;;21.2;22
74435;BME280;62867;52.038;29.256;2023-05-10T11:01:33;1032.1;;;21.5;22.2
74435;BME280;62867;52.038;29.256;2023-05-10T11:07:21;1032;;;21.6;21.3
74435;BME280;62867;52.038;29.256;2023-05-10T11:12:07;1032.1;;;21.3;22.3
74435;BME280;62867;52.038;29.256;2023-05-10T11:16:42;1032;;;21.3;22
74435;BME280;62867;52.038;29.256;2023-05-10T11:21:44;1032;;;21.4;22
74435;BME280;62867;52.038;29.256;2023-05-10T11:27:05;1032;;;21.1;22.8
74435;BME280;62867;52.038;29.256;2023-05-10T11:31:22;1032;;;21.4;22.4
74435;BME280;62867;52.038;29.256;2023-05-10T11:36:28;1031.9;;;21.9;21.2
74435;BME280;62867;52.038;29.256;2023-05-10T11:41:35;1031.8;;;22.9;20.8
74435;BME280;62867;52.038;29.256;2023-05-10T11:47:05;1031.8;;;24.3;20.1
74435;BME280;62867;52.038;29.256;2023-05-10T11:51:39;1031.6;;;29.5;15.6
74435;BME280;62867;52.038;29.256;2023-05-10T11:56:35;1031.6;;;32.4;14.5
74435;BME280;62867;52.038;29.256;2023-05-10T12:02:05;1031.5;;;34.6;12.7
74435;BME280;62867;52.038;29.256;2023-05-10T12:06:28;1031.5;;;37;10.3
74435;BME280;62867;52.038;29.256;2023-05-10T12:11:41;1031.5;;;38;10
74435;BME280;62867;52.038;29.256;2023-05-10T12:16:49;1031.5;;;35.3;10.2
74435;BME280;62867;52.038;29.256;2023-05-10T12:22:05;1031.5;;;32.1;11.6
74435;BME280;62867;52.038;29.256;2023-05-10T12:27:07;1031.6;;;29;14
74435;BME280;62867;52.038;29.256;2023-05-10T12:31:31;1031.6;;;26.8;15.3
74435;BME280;62867;52.038;29.256;2023-05-10T12:37:07;1031.6;;;25.1;16.5
74435;BME280;62867;52.038;29.256;2023-05-10T12:41:57;1031.6;;;24.1;17.5
74435;BME280;62867;52.038;29.256;2023-05-10T12:46:39;1031.5;;;23.3;19.1
74435;BME280;62867;52.038;29.256;2023-05-10T12:51:35;1031.5;;;22.8;19.1
74435;BME280;62867;52.038;29.256;2023-05-10T12:56:21;1031.5;;;23.4;19.1
74435;BME280;62867;52.038;29.256;2023-05-10T13:01:27;1031.3;;;27.7;16
74435;BME280;62867;52.038;29.256;2023-05-10T13:06:53;1031.3;;;30;14.3
74435;BME280;62867;52.038;29.256;2023-05-10T13:12:09;1031.2;;;30.4;14.3
74435;BME280;62867;52.038;29.256;2023-05-10T13:16:19;1031.2;;;31.8;12.9
74435;BME280;62867;52.038;29.256;2023-05-10T13:22:07;1031.1;;;31.3;12.9
74435;BME280;62867;52.038;29.256;2023-05-10T13:26:27;1031.1;;;30.7;13.5
74435;BME280;62867;52.038;29.256;2023-05-10T13:31:29;1031.1;;;29.8;13.9
74435;BME280;62867;52.038;29.256;2023-05-10T13:37:07;1031.2;;;27.6;15.2
74435;BME280;62867;52.038;29.256;2023-05-10T13:41:29;1031.3;;;25.4;16.6
74435;BME280;62867;52.038;29.256;2023-05-10T13:46:28;1031.3;;;23.9;17.8
74435;BME280;62867;52.038;29.256;2023-05-10T13:51:53;1031.2;;;22.6;18.6
74435;BME280;62867;52.038;29.256;2023-05-10T13:57:07;1031.3;;;21.9;21
74435;BME280;62867;52.038;29.256;2023-05-10T14:01:37;1031.3;;;21.2;20.7
74435;BME280;62867;52.038;29.256;2023-05-10T14:06:43;1031.2;;;20.9;21.8
74435;BME280;62867;52.038;29.256;2023-05-10T14:12:07;1031.2;;;20.6;22.2
74435;BME280;62867;52.038;29.256;2023-05-10T14:17:08;1031.2;;;20.2;21.8
74435;BME280;62867;52.038;29.256;2023-05-10T14:21:33;1031.2;;;19.8;22.9
74435;BME280;62867;52.038;29.256;2023-05-10T14:26:19;1031.2;;;19.2;23.5
74435;BME280;62867;52.038;29.256;2023-05-10T14:32:07;1031.2;;;18.6;24.1
74435;BME280;62867;52.038;29.256;2023-05-10T14:36:57;1031.2;;;18.1;26.8
74435;BME280;62867;52.038;29.256;2023-05-10T14:41:38;1031.2;;;17.7;28.6
74435;BME280;62867;52.038;29.256;2023-05-10T14:46:19;1031.2;;;17.3;31.5
74435;BME280;62867;52.038;29.256;2023-05-10T14:56:36;1031.1;;;17.3;28.7
74435;BME280;62867;52.038;29.256;2023-05-10T15:01:30;1031.1;;;17.6;25.9
74435;BME280;62867;52.038;29.256;2023-05-10T15:07:05;1031;;;17.8;25.4
74435;BME280;62867;52.038;29.256;2023-05-10T15:11:30;1031;;;17.9;24.8
74435;BME280;62867;52.038;29.256;2023-05-10T15:16:43;1031;;;17.9;25.2
74435;BME280;62867;52.038;29.256;2023-05-10T15:21:51;1031.1;;;17.8;25.9
74435;BME280;62867;52.038;29.256;2023-05-10T15:26:29;1031.1;;;17.7;26.2
74435;BME280;62867;52.038;29.256;2023-05-10T15:31:57;1031.1;;;17.6;25.9
74435;BME280;62867;52.038;29.256;2023-05-10T15:36:31;1031.1;;;17.4;25.6
74435;BME280;62867;52.038;29.256;2023-05-10T15:42:08;1031.1;;;17.2;26.6
74435;BME280;62867;52.038;29.256;2023-05-10T15:46:53;1031.1;;;17.1;27.2
74435;BME280;62867;52.038;29.256;2023-05-10T15:52:05;1031.1;;;17;27.1
74435;BME280;62867;52.038;29.256;2023-05-10T15:56:19;1031;;;16.8;28.2
74435;BME280;62867;52.038;29.256;2023-05-10T16:01:54;1031;;;16.7;29
74435;BME280;62867;52.038;29.256;2023-05-10T16:06:30;1031.1;;;16.5;28.7
74435;BME280;62867;52.038;29.256;2023-05-10T16:11:52;1031;;;16.3;31.3
74435;BME280;62867;52.038;29.256;2023-05-10T16:17:07;1031.1;;;16.1;30.9
74435;BME280;62867;52.038;29.256;2023-05-10T16:21:43;1031.1;;;15.9;29.1
74435;BME280;62867;52.038;29.256;2023-05-10T16:26:50;1031;;;15.8;29.2
74435;BME280;62867;52.038;29.256;2023-05-10T16:31:19;1031;;;15.6;30.5
74435;BME280;62867;52.038;29.256;2023-05-10T16:36:19;1031;;;15.4;33.2
74435;BME280;62867;52.038;29.256;2023-05-10T16:41:57;1031;;;15.3;32.5
74435;BME280;62867;52.038;29.256;2023-05-10T16:46:41;1031.1;;;15.2;34.7
74435;BME280;62867;52.038;29.256;2023-05-10T16:51:42;1031.1;;;15.1;35.9
74435;BME280;62867;52.038;29.256;2023-05-10T16:56:53;1031.1;;;15;33.9
74435;BME280;62867;52.038;29.256;2023-05-10T17:02:07;1031.1;;;14.8;37.3
74435;BME280;62867;52.038;29.256;2023-05-10T17:06:38;1031.2;;;14.7;39.8
74435;BME280;62867;52.038;29.256;2023-05-10T17:11:44;1031.2;;;14.4;40.4
74435;BME280;62867;52.038;29.256;2023-05-10T17:17:08;1031.2;;;14.2;40.5
74435;BME280;62867;52.038;29.256;2023-05-10T17:22:08;1031.2;;;13.9;41.6
74435;BME280;62867;52.038;29.256;2023-05-10T17:27:08;1031.3;;;13.6;41.1
74435;BME280;62867;52.038;29.256;2023-05-10T17:31:30;1031.3;;;13.4;40.6
74435;BME280;62867;52.038;29.256;2023-05-10T17:37:07;1031.3;;;13.1;41.6
74435;BME280;62867;52.038;29.256;2023-05-10T17:41:56;1031.4;;;12.8;44
74435;BME280;62867;52.038;29.256;2023-05-10T17:46:30;1031.4;;;12.5;44
74435;BME280;62867;52.038;29.256;2023-05-10T17:51:38;1031.5;;;12.3;44.6
74435;BME280;62867;52.038;29.256;2023-05-10T17:57:08;1031.5;;;12.1;45.3
74435;BME280;62867;52.038;29.256;2023-05-10T18:01:32;1031.6;;;11.9;45.4
74435;BME280;62867;52.038;29.256;2023-05-10T18:06:30;1031.6;;;11.8;44.6
74435;BME280;62867;52.038;29.256;2023-05-10T18:12:08;1031.7;;;11.7;45.9
74435;BME280;62867;52.038;29.256;2023-05-10T18:16:30;1031.8;;;11.6;45.8
74435;BME280;62867;52.038;29.256;2023-05-10T18:21:20;1031.8;;;11.6;45.2
74435;BME280;62867;52.038;29.256;2023-05-10T18:26:22;1031.9;;;11.6;46.1
74435;BME280;62867;52.038;29.256;2023-05-10T18:31:20;1031.9;;;11.6;45.1
74435;BME280;62867;52.038;29.256;2023-05-10T18:36:56;1031.9;;;11.5;46.9
74435;BME280;62867;52.038;29.256;2023-05-10T18:41:42;1032;;;11.4;49.1
74435;BME280;62867;52.038;29.256;2023-05-10T18:47:08;1032;;;11.4;46.6
74435;BME280;62867;52.038;29.256;2023-05-10T18:51:54;1032.1;;;11.4;47.2
74435;BME280;62867;52.038;29.256;2023-05-10T18:57:08;1032.1;;;11.3;49.3
74435;BME280;62867;52.038;29.256;2023-05-10T19:01:38;1032.1;;;11.3;49.4
74435;BME280;62867;52.038;29.256;2023-05-10T19:07:08;1032.1;;;11.2;49
74435;BME280;62867;52.038;29.256;2023-05-10T19:11:30;1032.1;;;11.2;48.7
74435;BME280;62867;52.038;29.256;2023-05-10T19:17:08;1032.1;;;11.2;47.9
74435;BME280;62867;52.038;29.256;2023-05-10T19:21:44;1032.1;;;11.2;48.2
74435;BME280;62867;52.038;29.256;2023-05-10T19:26:20;1032.2;;;11.1;49.1
74435;BME280;62867;52.038;29.256;2023-05-10T19:31:56;1032.2;;;11;49.5
74435;BME280;62867;52.038;29.256;2023-05-10T19:36:42;1032.2;;;10.9;50.2
74435;BME280;62867;52.038;29.256;2023-05-10T19:41:30;1032.1;;;10.7;51.3
74435;BME280;62867;52.038;29.256;2023-05-10T19:47:10;1032.1;;;10.5;49.7
74435;BME280;62867;52.038;29.256;2023-05-10T19:52:10;1032.1;;;10.3;50.7
74435;BME280;62867;52.038;29.256;2023-05-10T19:56:20;1032.1;;;10.1;51.1
74435;BME280;62867;52.038;29.256;2023-05-10T20:01:54;1032.1;;;9.9;51.6
74435;BME280;62867;52.038;29.256;2023-05-10T20:07:08;1032.1;;;9.8;51.5
74435;BME280;62867;52.038;29.256;2023-05-10T20:11:38;1032.1;;;9.6;51.7
74435;BME280;62867;52.038;29.256;2023-05-10T20:16:44;1032.1;;;9.4;51.9
74435;BME280;62867;52.038;29.256;2023-05-10T20:22:08;1032.1;;;9.2;51.6
74435;BME280;62867;52.038;29.256;2023-05-10T20:27:08;1032.1;;;9.1;52.2
74435;BME280;62867;52.038;29.256;2023-05-10T20:31:44;1032.1;;;9;52.2
74435;BME280;62867;52.038;29.256;2023-05-10T20:36:30;1032.1;;;8.8;52.7
74435;BME280;62867;52.038;29.256;2023-05-10T20:42:06;1032.1;;;8.6;52.9
74435;BME280;62867;52.038;29.256;2023-05-10T20:46:58;1032.1;;;8.5;53.2
74435;BME280;62867;52.038;29.256;2023-05-10T20:51:20;1032.1;;;8.3;54.1
74435;BME280;62867;52.038;29.256;2023-05-10T20:56:28;1032.1;;;8.2;53.8
74435;BME280;62867;52.038;29.256;2023-05-10T21:02:08;1032.1;;;8.1;54.2
74435;BME280;62867;52.038;29.256;2023-05-10T21:06:30;1032.1;;;8;54.5
74435;BME280;62867;52.038;29.256;2023-05-10T21:11:36;1032.1;;;7.9;53.7
74435;BME280;62867;52.038;29.256;2023-05-10T21:16:22;1032.1;;;7.8;54.2
74435;BME280;62867;52.038;29.256;2023-05-10T21:21:44;1032.1;;;7.7;53.8
74435;BME280;62867;52.038;29.256;2023-05-10T21:26:58;1032.1;;;7.7;54.3
74435;BME280;62867;52.038;29.256;2023-05-10T21:31:42;1032.1;;;7.6;54.5
74435;BME280;62867;52.038;29.256;2023-05-10T21:36:28;1032.1;;;7.5;54.7
74435;BME280;62867;52.038;29.256;2023-05-10T21:41:58;1032.1;;;7.4;55.6
74435;BME280;62867;52.038;29.256;2023-05-10T21:47:08;1032.1;;;7.3;55.5
74435;BME280;62867;52.038;29.256;2023-05-10T21:52:08;1032.1;;;7.2;55.6
74435;BME280;62867;52.038;29.256;2023-05-10T21:56:54;1032.1;;;7.2;56.6
74435;BME280;62867;52.038;29.256;2023-05-10T22:02:08;1032;;;7.1;56.6
74435;BME280;62867;52.038;29.256;2023-05-10T22:06:38;1032;;;7.1;56.5
74435;BME280;62867;52.038;29.256;2023-05-10T22:12:10;1032.1;;;7;56.3
74435;BME280;62867;52.038;29.256;2023-05-10T22:16:20;1032.1;;;7;56.4
74435;BME280;62867;52.038;29.256;2023-05-10T22:21:52;1032.1;;;6.9;56
74435;BME280;62867;52.038;29.256;2023-05-10T22:26:44;1032.1;;;6.9;55.6
74435;BME280;62867;52.038;29.256;2023-05-10T22:31:20;1032;;;6.8;56.6
74435;BME280;62867;52.038;29.256;2023-05-10T22:36:54;1032.1;;;6.8;56.5
74435;BME280;62867;52.038;29.256;2023-05-10T22:41:50;1032.1;;;6.7;57.3
74435;BME280;62867;52.038;29.256;2023-05-10T22:46:36;1032.1;;;6.6;57.7
74435;BME280;62867;52.038;29.256;2023-05-10T22:52:06;1032.2;;;6.5;57.8
74435;BME280;62867;52.038;29.256;2023-05-10T22:57:06;1032.2;;;6.4;57.4
74435;BME280;62867;52.038;29.256;2023-05-10T23:01:40;1032.2;;;6.4;57.8
74435;BME280;62867;52.038;29.256;2023-05-10T23:06:52;1032.3;;;6.4;57.3
74435;BME280;62867;52.038;29.256;2023-05-10T23:11:56;1032.3;;;6.3;57.2
74435;BME280;62867;52.038;29.256;2023-05-10T23:16:42;1032.3;;;6.3;57
74435;BME280;62867;52.038;29.256;2023-05-10T23:21:32;1032.3;;;6.2;57.2
74435;BME280;62867;52.038;29.256;2023-05-10T23:26:50;1032.3;;;6.2;57.3
74435;BME280;62867;52.038;29.256;2023-05-10T23:32:04;1032.3;;;6.1;58.1
74435;BME280;62867;52.038;29.256;2023-05-10T23:37:02;1032.3;;;6;57.9
74435;BME280;62867;52.038;29.256;2023-05-10T23:41:38;1032.3;;;5.9;57.9
74435;BME280;62867;52.038;29.256;2023-05-10T23:47:04;1032.3;;;5.9;59
74435;BME280;62867;52.038;29.256;2023-05-10T23:51:54;1032.4;;;5.8;59
74435;BME280;62867;52.038;29.256;2023-05-10T23:56:26;1032.4;;;5.8;58.6
